createdAt,value
2019-02-08T00:01:59.391Z,63.79
2019-02-08T00:04:30.294Z,63.73
2019-02-08T00:07:01.572Z,64.23
2019-02-08T00:09:32.966Z,64.09
2019-02-08T00:12:03.905Z,64.33
2019-02-08T00:14:34.803Z,64.15
2019-02-08T00:17:05.746Z,64.18
2019-02-08T00:19:36.652Z,64.33
2019-02-08T00:22:08.679Z,64.20
2019-02-08T00:24:39.615Z,64.63
2019-02-08T00:27:12.544Z,64.40
2019-02-08T00:29:43.459Z,64.66
2019-02-08T00:32:14.411Z,64.72
2019-02-08T00:34:45.287Z,64.69
2019-02-08T00:37:16.525Z,64.66
2019-02-08T00:39:47.425Z,64.64
2019-02-08T00:42:18.723Z,64.69
2019-02-08T00:44:50.511Z,64.84
2019-02-08T00:47:21.441Z,64.86
2019-02-08T00:49:52.623Z,64.85
2019-02-08T00:52:23.546Z,65.00
2019-02-08T00:54:54.456Z,65.16
2019-02-08T00:57:25.448Z,65.05
2019-02-08T00:59:56.356Z,65.12
2019-02-08T01:02:27.361Z,65.47
2019-02-08T01:04:58.536Z,65.63
2019-02-08T01:07:29.474Z,66.09
2019-02-08T01:10:00.454Z,65.91
2019-02-08T01:12:31.406Z,66.40
2019-02-08T01:15:02.321Z,66.53
2019-02-08T01:17:33.320Z,66.74
2019-02-08T01:20:16.275Z,66.93
2019-02-08T01:22:47.313Z,66.92
2019-02-08T01:25:20.116Z,67.46
2019-02-08T01:27:51.667Z,67.23
2019-02-08T01:30:24.768Z,67.63
2019-02-08T01:32:55.809Z,67.70
2019-02-08T01:35:28.155Z,67.81
2019-02-08T01:38:00.300Z,67.81
2019-02-08T01:40:36.707Z,67.68
2019-02-08T01:43:09.188Z,67.94
2019-02-08T01:45:40.703Z,67.83
2019-02-08T01:48:12.004Z,67.91
2019-02-08T01:50:42.906Z,67.91
2019-02-08T01:53:13.839Z,67.71
2019-02-08T01:55:44.757Z,67.61
2019-02-08T01:58:15.707Z,67.79
2019-02-08T02:00:46.605Z,67.88
2019-02-08T02:03:17.637Z,67.72
2019-02-08T02:05:48.535Z,67.71
2019-02-08T02:08:19.541Z,67.46
2019-02-08T02:10:50.456Z,67.77
2019-02-08T02:13:21.469Z,67.59
2019-02-08T02:15:52.378Z,67.40
2019-02-08T02:18:23.302Z,67.42
2019-02-08T02:20:54.203Z,67.71
2019-02-08T02:23:25.611Z,67.61
2019-02-08T02:25:56.464Z,67.60
2019-02-08T02:28:27.580Z,67.49
2019-02-08T02:30:58.478Z,67.43
2019-02-08T02:33:29.419Z,67.30
2019-02-08T02:36:00.318Z,67.38
2019-02-08T02:38:31.255Z,67.42
2019-02-08T02:41:02.149Z,67.38
2019-02-08T02:43:33.168Z,67.49
2019-02-08T02:46:04.859Z,67.90
2019-02-08T02:48:35.770Z,67.69
2019-02-08T02:51:06.692Z,67.60
2019-02-08T02:53:37.613Z,67.74
2019-02-08T02:56:08.521Z,67.71
2019-02-08T02:58:39.594Z,67.60
2019-02-08T03:01:10.562Z,67.64
2019-02-08T03:03:41.497Z,67.64
2019-02-08T03:06:12.410Z,67.60
2019-02-08T03:08:43.350Z,67.75
2019-02-08T03:11:14.264Z,67.85
2019-02-08T03:13:45.265Z,67.87
2019-02-08T03:16:16.158Z,67.90
2019-02-08T03:18:47.091Z,68.02
2019-02-08T03:21:17.978Z,68.13
2019-02-08T03:23:48.911Z,67.99
2019-02-08T03:26:19.815Z,67.94
2019-02-08T03:28:50.955Z,68.81
2019-02-08T03:31:21.862Z,68.58
2019-02-08T03:33:52.785Z,68.28
2019-02-08T03:36:23.691Z,68.30
2019-02-08T03:38:54.632Z,68.47
2019-02-08T03:41:25.535Z,68.61
2019-02-08T03:43:56.579Z,68.82
2019-02-08T03:46:29.359Z,68.95
2019-02-08T03:49:00.280Z,69.05
2019-02-08T03:51:31.198Z,69.36
2019-02-08T03:54:02.217Z,69.12
2019-02-08T03:56:33.123Z,69.49
2019-02-08T03:59:04.071Z,69.53
2019-02-08T04:01:35.074Z,69.34
2019-02-08T04:04:14.744Z,69.19
2019-02-08T04:06:45.653Z,69.33
2019-02-08T04:09:16.596Z,69.32
2019-02-08T04:11:47.493Z,69.12
2019-02-08T04:14:18.533Z,69.38
2019-02-08T04:16:49.452Z,69.70
2019-02-08T04:19:20.383Z,69.56
2019-02-08T04:21:51.360Z,69.34
2019-02-08T04:24:29.836Z,69.33
2019-02-08T04:26:54.960Z,69.10
2019-02-08T04:29:26.024Z,69.40
2019-02-08T04:31:56.925Z,69.81
2019-02-08T04:34:27.857Z,70.10
2019-02-08T04:36:58.770Z,70.45
2019-02-08T04:39:29.708Z,70.24
2019-02-08T04:42:00.616Z,70.08
2019-02-08T04:44:32.112Z,70.19
2019-02-08T04:47:03.008Z,70.21
2019-02-08T04:49:33.930Z,70.76
2019-02-08T04:52:04.838Z,70.67
2019-02-08T04:54:38.373Z,71.03
2019-02-08T04:57:08.350Z,71.07
2019-02-08T04:59:39.296Z,71.58
2019-02-08T05:02:10.193Z,71.22
2019-02-08T05:04:41.129Z,71.22
2019-02-08T05:07:12.023Z,71.20
2019-02-08T05:09:42.963Z,72.10
2019-02-08T05:12:13.864Z,72.16
2019-02-08T05:14:45.186Z,71.69
2019-02-08T05:17:16.087Z,71.54
2019-02-08T05:19:47.031Z,71.99
2019-02-08T05:22:17.930Z,72.14
2019-02-08T05:24:48.877Z,71.92
2019-02-08T05:27:19.774Z,71.75
2019-02-08T05:29:50.734Z,72.13
2019-02-08T05:32:21.706Z,71.81
2019-02-08T05:34:52.634Z,71.65
2019-02-08T05:37:27.242Z,71.58
2019-02-08T05:39:58.179Z,71.85
2019-02-08T05:42:29.075Z,71.96
2019-02-08T05:45:00.039Z,72.03
2019-02-08T05:47:31.930Z,72.16
2019-02-08T05:50:02.864Z,72.64
2019-02-08T05:52:33.762Z,72.43
2019-02-08T05:55:07.704Z,72.51
2019-02-08T05:57:38.587Z,72.28
2019-02-08T06:00:22.370Z,72.37
2019-02-08T06:02:53.355Z,72.04
2019-02-08T06:05:25.571Z,72.04
2019-02-08T06:07:56.547Z,71.96
2019-02-08T06:10:27.491Z,71.79
2019-02-08T06:12:58.383Z,72.03
2019-02-08T06:15:29.437Z,71.90
2019-02-08T06:18:00.457Z,71.99
2019-02-08T06:20:31.394Z,71.49
2019-02-08T06:23:02.368Z,71.78
2019-02-08T06:25:33.302Z,71.86
2019-02-08T06:28:05.112Z,71.55
2019-02-08T06:30:36.492Z,71.40
2019-02-08T06:33:07.483Z,71.36
2019-02-08T06:35:38.523Z,71.39
2019-02-08T06:38:09.521Z,71.57
2019-02-08T06:40:42.876Z,71.81
2019-02-08T06:43:13.782Z,71.74
2019-02-08T06:45:44.904Z,71.61
2019-02-08T06:48:16.609Z,71.80
2019-02-08T06:50:47.525Z,71.70
2019-02-08T06:53:18.431Z,71.71
2019-02-08T06:55:53.836Z,71.54
2019-02-08T06:58:29.592Z,71.55
2019-02-08T07:01:02.353Z,71.49
2019-02-08T07:03:37.639Z,71.58
2019-02-08T07:06:13.291Z,71.42
2019-02-08T07:08:45.869Z,71.82
2019-02-08T07:11:24.275Z,71.43
2019-02-08T07:14:05.798Z,71.14
2019-02-08T07:16:38.626Z,71.45
2019-02-08T07:19:11.222Z,71.49
2019-02-08T07:21:43.781Z,71.55
2019-02-08T07:24:34.336Z,71.57
2019-02-08T07:27:07.014Z,71.67
2019-02-08T07:29:40.174Z,71.90
2019-02-08T07:32:15.842Z,72.16
2019-02-08T07:35:06.501Z,72.08
2019-02-08T07:37:41.914Z,71.94
2019-02-08T07:40:29.301Z,71.98
2019-02-08T07:43:05.951Z,71.75
2019-02-08T07:45:56.359Z,71.45
2019-02-08T07:48:32.113Z,71.03
2019-02-08T07:51:04.662Z,70.90
2019-02-08T07:53:40.080Z,70.72
2019-02-08T07:56:16.479Z,70.50
2019-02-08T07:59:07.395Z,70.40
2019-02-08T08:01:40.626Z,70.31
2019-02-08T08:04:13.230Z,70.23
2019-02-08T08:06:45.887Z,70.10
2019-02-08T08:09:21.416Z,69.62
2019-02-08T08:11:56.777Z,69.12
2019-02-08T08:14:29.762Z,68.63
2019-02-08T08:17:18.549Z,68.48
2019-02-08T08:20:04.255Z,68.03
2019-02-08T08:22:39.699Z,67.59
2019-02-08T08:25:12.578Z,67.23
2019-02-08T08:27:45.127Z,66.78
2019-02-08T08:30:23.482Z,66.53
2019-02-08T08:32:57.368Z,66.31
2019-02-08T08:35:43.164Z,66.33
2019-02-08T08:38:44.128Z,66.27
2019-02-08T08:41:37.541Z,66.26
2019-02-08T08:44:30.905Z,65.97
2019-02-08T08:47:24.361Z,65.92
2019-02-08T08:50:14.255Z,65.50
2019-02-08T08:52:59.820Z,65.41
2019-02-08T08:55:42.082Z,65.26
2019-02-08T08:58:14.934Z,65.23
2019-02-08T09:00:51.387Z,65.47
2019-02-08T09:03:30.745Z,65.59
2019-02-08T09:06:13.561Z,66.05
2019-02-08T09:08:50.205Z,66.14
2019-02-08T09:11:25.208Z,66.48
2019-02-08T09:14:05.086Z,66.42
2019-02-08T09:16:51.156Z,66.35
2019-02-08T09:19:53.779Z,66.61
2019-02-08T09:22:39.323Z,66.83
2019-02-08T09:25:34.329Z,67.05
2019-02-08T09:28:10.820Z,66.87
2019-02-08T09:31:17.809Z,67.16
2019-02-08T09:34:17.180Z,67.03
2019-02-08T09:37:10.366Z,66.88
2019-02-08T09:39:46.917Z,66.47
2019-02-08T09:42:55.459Z,66.02
2019-02-08T09:45:44.399Z,65.78
2019-02-08T09:48:40.712Z,65.51
2019-02-08T09:51:17.219Z,65.48
2019-02-08T09:53:54.035Z,65.24
2019-02-08T09:56:55.279Z,65.11
2019-02-08T09:59:44.147Z,64.71
2019-02-08T10:02:29.811Z,64.45
2019-02-08T10:05:25.943Z,64.24
2019-02-08T10:08:32.972Z,64.04
2019-02-08T10:11:32.134Z,63.53
2019-02-08T10:14:29.986Z,63.65
2019-02-08T10:17:12.681Z,63.89
2019-02-08T10:19:58.152Z,63.98
2019-02-08T10:22:38.003Z,63.78
2019-02-08T10:25:28.218Z,63.81
2019-02-08T10:28:17.239Z,63.80
2019-02-08T10:31:12.169Z,63.76
2019-02-08T10:34:18.999Z,63.55
2019-02-08T10:37:21.439Z,63.60
2019-02-08T10:40:14.578Z,63.42
2019-02-08T10:43:21.642Z,63.70
2019-02-08T10:46:01.611Z,63.47
2019-02-08T10:49:08.545Z,63.22
2019-02-08T10:52:01.945Z,63.19
2019-02-08T10:54:53.900Z,63.21
2019-02-08T10:57:59.568Z,62.99
2019-02-08T11:01:00.665Z,62.72
2019-02-08T11:04:01.661Z,62.71
2019-02-08T11:06:51.896Z,62.35
2019-02-08T11:09:52.815Z,62.26
2019-02-08T11:12:49.061Z,62.08
2019-02-08T11:15:39.354Z,61.82
2019-02-08T11:18:47.262Z,61.78
2019-02-08T11:21:18.193Z,61.89
2019-02-08T11:23:49.099Z,61.91
2019-02-08T11:26:23.060Z,61.87
2019-02-08T11:28:52.646Z,61.93
2019-02-08T11:31:23.584Z,61.59
2019-02-08T11:33:54.483Z,61.24
2019-02-08T11:36:25.514Z,60.82
2019-02-08T11:38:56.426Z,60.74
2019-02-08T11:41:27.569Z,60.21
2019-02-08T11:43:58.470Z,60.05
2019-02-08T11:46:29.613Z,60.00
2019-02-08T11:49:00.509Z,59.65
2019-02-08T11:51:31.449Z,59.65
2019-02-08T11:54:02.349Z,59.56
2019-02-08T11:56:33.312Z,59.77
2019-02-08T11:59:04.708Z,59.70
2019-02-08T12:01:37.284Z,59.78
2019-02-08T12:04:08.793Z,59.88
2019-02-08T12:06:39.728Z,59.89
2019-02-08T12:09:12.941Z,59.76
2019-02-08T12:11:44.342Z,59.81
2019-02-08T12:14:15.491Z,60.11
2019-02-08T12:16:46.420Z,60.08
2019-02-08T12:19:17.316Z,60.26
2019-02-08T12:21:48.246Z,60.57
2019-02-08T12:24:19.152Z,60.64
2019-02-08T12:26:50.180Z,60.74
2019-02-08T12:29:21.085Z,60.75
2019-02-08T12:31:52.062Z,60.88
2019-02-08T12:34:22.969Z,60.93
2019-02-08T12:36:53.909Z,61.22
2019-02-08T12:39:24.810Z,61.31
2019-02-08T12:41:55.785Z,61.07
2019-02-08T12:44:26.693Z,60.95
2019-02-08T12:46:57.630Z,60.87
2019-02-08T12:49:28.522Z,60.70
2019-02-08T12:51:59.461Z,60.55
2019-02-08T12:54:30.380Z,60.29
2019-02-08T12:57:01.353Z,60.52
2019-02-08T12:59:32.309Z,60.43
2019-02-08T13:02:03.220Z,60.65
2019-02-08T13:04:34.122Z,60.69
2019-02-08T13:07:05.259Z,60.73
2019-02-08T13:09:36.166Z,60.75
2019-02-08T13:12:07.114Z,60.64
2019-02-08T13:14:38.022Z,60.61
2019-02-08T13:17:08.950Z,60.58
2019-02-08T13:19:39.851Z,60.37
2019-02-08T13:22:10.785Z,60.24
2019-02-08T13:24:41.691Z,60.16
2019-02-08T13:27:12.643Z,60.12
2019-02-08T13:29:43.554Z,59.97
2019-02-08T13:32:14.493Z,59.81
2019-02-08T13:34:45.395Z,59.84
2019-02-08T13:37:16.328Z,59.85
2019-02-08T13:39:47.239Z,59.88
2019-02-08T13:42:18.228Z,59.83
2019-02-08T13:44:49.146Z,59.64
2019-02-08T13:47:20.190Z,59.73
2019-02-08T13:49:51.100Z,59.85
2019-02-08T13:52:22.034Z,59.76
2019-02-08T13:54:53.052Z,59.79
2019-02-08T13:57:23.998Z,59.75
2019-02-08T13:59:54.908Z,59.83
2019-02-08T14:02:25.853Z,59.69
2019-02-08T14:04:56.764Z,59.45
2019-02-08T14:07:27.699Z,59.40
2019-02-08T14:09:58.603Z,59.37
2019-02-08T14:12:29.575Z,59.27
2019-02-08T14:15:00.485Z,59.41
2019-02-08T14:17:31.415Z,59.45
2019-02-08T14:20:02.381Z,59.42
2019-02-08T14:22:33.313Z,59.68
2019-02-08T14:25:05.625Z,59.58
2019-02-08T14:27:36.575Z,59.81
2019-02-08T14:30:18.902Z,59.83
2019-02-08T14:32:49.817Z,59.92
2019-02-08T14:35:20.756Z,60.10
2019-02-08T14:37:51.810Z,60.43
2019-02-08T14:40:24.607Z,60.76
2019-02-08T14:42:55.732Z,60.96
2019-02-08T14:45:26.638Z,60.93
2019-02-08T14:47:57.571Z,61.04
2019-02-08T14:50:29.781Z,61.32
2019-02-08T14:53:00.811Z,61.37
2019-02-08T14:55:31.711Z,61.54
2019-02-08T14:58:05.017Z,62.16
2019-02-08T15:00:35.977Z,62.24
2019-02-08T15:03:06.913Z,62.40
2019-02-08T15:05:37.807Z,62.58
2019-02-08T15:08:08.741Z,62.81
2019-02-08T15:10:42.637Z,62.76
2019-02-08T15:13:13.795Z,62.77
2019-02-08T15:15:44.699Z,62.89
2019-02-08T15:18:15.610Z,62.93
2019-02-08T15:20:46.505Z,62.89
2019-02-08T15:23:17.595Z,62.92
2019-02-08T15:25:48.492Z,62.94
2019-02-08T15:28:19.469Z,63.13
2019-02-08T15:30:50.375Z,63.08
2019-02-08T15:33:21.333Z,63.15
2019-02-08T15:35:52.201Z,63.21
2019-02-08T15:38:23.238Z,63.16
2019-02-08T15:40:55.648Z,63.06
2019-02-08T15:43:26.705Z,63.39
2019-02-08T15:45:59.546Z,63.39
2019-02-08T15:48:30.572Z,63.53
2019-02-08T15:51:01.675Z,63.51
2019-02-08T15:53:32.897Z,63.73
2019-02-08T15:56:06.993Z,63.88
2019-02-08T15:58:37.996Z,64.03
2019-02-08T16:01:10.172Z,64.38
2019-02-08T16:03:41.212Z,64.62
2019-02-08T16:06:12.423Z,64.71
2019-02-08T16:08:43.378Z,64.63
2019-02-08T16:11:14.312Z,64.96
2019-02-08T16:13:45.334Z,64.95
2019-02-08T16:16:16.379Z,65.15
2019-02-08T16:18:47.382Z,65.24
2019-02-08T16:21:18.507Z,65.44
2019-02-08T16:23:49.477Z,65.45
2019-02-08T16:26:24.205Z,65.55
2019-02-08T16:28:55.183Z,65.59
2019-02-08T16:31:26.120Z,65.58
2019-02-08T16:33:57.195Z,65.52
2019-02-08T16:36:28.218Z,65.44
2019-02-08T16:38:59.186Z,65.62
2019-02-08T16:41:30.192Z,65.59
2019-02-08T16:44:01.259Z,65.49
2019-02-08T16:46:33.471Z,65.69
2019-02-08T16:49:04.744Z,65.79
2019-02-08T16:51:35.640Z,65.70
2019-02-08T16:54:06.760Z,65.59
2019-02-08T16:56:38.546Z,65.76
2019-02-08T16:59:09.646Z,65.85
2019-02-08T17:01:40.565Z,65.81
2019-02-08T17:04:11.575Z,65.79
2019-02-08T17:06:42.512Z,65.67
2019-02-08T17:09:14.044Z,65.66
2019-02-08T17:11:44.957Z,65.60
2019-02-08T17:14:15.928Z,65.57
2019-02-08T17:16:46.832Z,65.59
2019-02-08T17:19:17.781Z,65.71
2019-02-08T17:21:48.939Z,65.98
2019-02-08T17:24:19.878Z,65.99
2019-02-08T17:26:50.775Z,66.11
2019-02-08T17:29:21.848Z,66.19
2019-02-08T17:31:52.731Z,65.99
2019-02-08T17:34:23.663Z,66.12
2019-02-08T17:36:54.565Z,66.12
2019-02-08T17:39:25.497Z,66.59
2019-02-08T17:41:56.412Z,66.50
2019-02-08T17:44:27.368Z,66.52
2019-02-08T17:46:58.276Z,66.42
2019-02-08T17:49:29.307Z,66.62
2019-02-08T17:52:00.205Z,66.68
2019-02-08T17:54:31.148Z,66.74
2019-02-08T17:57:02.141Z,66.78
2019-02-08T17:59:33.109Z,66.63
2019-02-08T18:02:04.020Z,66.79
2019-02-08T18:04:34.963Z,66.78
2019-02-08T18:07:05.887Z,66.81
2019-02-08T18:09:36.850Z,66.78
2019-02-08T18:12:07.768Z,66.66
2019-02-08T18:14:38.867Z,66.76
2019-02-08T18:17:09.765Z,66.77
2019-02-08T18:19:40.698Z,66.80
2019-02-08T18:22:11.600Z,66.95
2019-02-08T18:24:42.563Z,66.79
2019-02-08T18:27:13.467Z,67.07
2019-02-08T18:29:44.545Z,66.99
2019-02-08T18:32:15.452Z,66.98
2019-02-08T18:34:46.372Z,66.98
2019-02-08T18:37:17.278Z,67.18
2019-02-08T18:39:48.211Z,67.02
2019-02-08T18:42:19.110Z,66.85
2019-02-08T18:44:50.079Z,66.99
2019-02-08T18:47:20.975Z,66.89
2019-02-08T18:49:51.928Z,66.82
2019-02-08T18:52:22.821Z,66.88
2019-02-08T18:54:53.763Z,67.03
2019-02-08T18:57:25.451Z,67.07
2019-02-08T18:59:56.416Z,66.91
2019-02-08T19:02:27.325Z,66.87
2019-02-08T19:04:58.277Z,66.85
2019-02-08T19:07:29.187Z,66.83
2019-02-08T19:10:00.216Z,66.90
2019-02-08T19:12:31.082Z,66.83
2019-02-08T19:15:02.037Z,66.77
2019-02-08T19:17:33.022Z,66.73
2019-02-08T19:20:05.146Z,66.87
2019-02-08T19:22:36.068Z,66.87
2019-02-08T19:25:09.904Z,66.86
2019-02-08T19:27:40.806Z,66.90
2019-02-08T19:30:20.467Z,66.81
2019-02-08T19:32:51.379Z,66.90
2019-02-08T19:35:22.318Z,66.71
2019-02-08T19:37:53.218Z,66.55
2019-02-08T19:40:27.131Z,66.70
2019-02-08T19:42:58.043Z,66.59
2019-02-08T19:45:29.018Z,66.63
2019-02-08T19:48:00.038Z,66.68
2019-02-08T19:50:33.754Z,66.62
2019-02-08T19:53:05.782Z,66.40
2019-02-08T19:55:36.718Z,66.42
2019-02-08T19:58:08.523Z,66.46
2019-02-08T20:00:44.369Z,66.65
2019-02-08T20:03:15.279Z,66.79
2019-02-08T20:05:46.210Z,66.67
2019-02-08T20:08:17.099Z,66.65
2019-02-08T20:10:49.807Z,66.78
2019-02-08T20:13:20.720Z,66.90
2019-02-08T20:15:51.718Z,66.69
2019-02-08T20:18:22.619Z,66.78
2019-02-08T20:20:53.570Z,66.72
2019-02-08T20:23:24.497Z,66.84
2019-02-08T20:25:55.413Z,66.90
2019-02-08T20:28:26.315Z,66.86
2019-02-08T20:30:57.272Z,66.66
2019-02-08T20:33:28.182Z,66.75
2019-02-08T20:35:59.115Z,67.10
2019-02-08T20:38:30.021Z,67.07
2019-02-08T20:41:00.961Z,66.80
2019-02-08T20:43:31.868Z,66.66
2019-02-08T20:46:02.821Z,66.80
2019-02-08T20:48:33.737Z,67.05
2019-02-08T20:51:04.680Z,66.77
2019-02-08T20:53:35.646Z,66.96
2019-02-08T20:56:06.981Z,66.83
2019-02-08T20:58:38.799Z,66.73
2019-02-08T21:01:10.057Z,67.08
2019-02-08T21:03:40.966Z,67.26
2019-02-08T21:06:12.006Z,67.50
2019-02-08T21:08:42.912Z,67.56
2019-02-08T21:11:13.838Z,67.81
2019-02-08T21:13:44.743Z,68.05
2019-02-08T21:16:21.254Z,68.09
2019-02-08T21:18:52.168Z,67.84
2019-02-08T21:21:23.097Z,68.02
2019-02-08T21:23:54.009Z,68.14
2019-02-08T21:26:24.943Z,68.20
2019-02-08T21:28:58.078Z,68.21
2019-02-08T21:31:28.506Z,68.42
2019-02-08T21:33:59.523Z,68.34
2019-02-08T21:36:38.589Z,68.33
2019-02-08T21:39:03.336Z,68.29
2019-02-08T21:41:34.266Z,68.25
2019-02-08T21:44:05.367Z,68.33
2019-02-08T21:46:36.329Z,68.12
2019-02-08T21:49:07.220Z,68.41
2019-02-08T21:51:38.143Z,68.48
2019-02-08T21:54:09.053Z,68.51
2019-02-08T21:56:39.981Z,68.50
2019-02-08T21:59:11.993Z,68.70
2019-02-08T22:01:42.993Z,68.60
2019-02-08T22:04:14.213Z,68.74
2019-02-08T22:06:45.162Z,68.55
2019-02-08T22:09:16.161Z,68.83
2019-02-08T22:11:47.096Z,69.02
2019-02-08T22:14:18.002Z,68.81
2019-02-08T22:16:49.036Z,68.95
2019-02-08T22:19:19.946Z,68.99
2019-02-08T22:21:50.894Z,68.79
2019-02-08T22:24:21.805Z,68.67
2019-02-08T22:26:52.741Z,68.88
2019-02-08T22:29:23.644Z,68.77
2019-02-08T22:31:54.605Z,68.64
2019-02-08T22:34:25.508Z,68.63
2019-02-08T22:36:56.455Z,68.74
2019-02-08T22:39:27.364Z,68.63
2019-02-08T22:41:58.297Z,68.64
2019-02-08T22:44:29.203Z,68.33
2019-02-08T22:47:00.161Z,68.33
2019-02-08T22:49:31.088Z,68.34
2019-02-08T22:52:02.022Z,68.32
2019-02-08T22:54:32.947Z,68.33
2019-02-08T22:57:03.874Z,68.23
2019-02-08T22:59:34.789Z,68.31
2019-02-08T23:02:07.533Z,68.32
2019-02-08T23:04:38.440Z,68.41
2019-02-08T23:07:09.582Z,68.52
2019-02-08T23:09:40.488Z,68.60
2019-02-08T23:12:11.427Z,68.63
2019-02-08T23:14:42.327Z,68.69
2019-02-08T23:17:13.283Z,68.47
2019-02-08T23:19:44.182Z,68.61
2019-02-08T23:22:15.121Z,68.46
2019-02-08T23:24:46.197Z,68.41
2019-02-08T23:27:17.126Z,68.65
2019-02-08T23:29:48.035Z,68.74
2019-02-08T23:32:18.987Z,68.73
2019-02-08T23:34:49.891Z,68.59
2019-02-08T23:37:25.885Z,68.54
2019-02-08T23:42:54.304Z,68.76
2019-02-08T23:45:25.209Z,68.55
2019-02-08T23:47:59.676Z,68.50
2019-02-08T23:50:30.579Z,68.39
2019-02-08T23:53:01.554Z,68.32
2019-02-08T23:55:32.454Z,68.48
2019-02-08T23:58:03.381Z,68.48
